Time;durP1;ratioP1;P1;durP2;ratioP2;P2;SDS_P1;SDS_P2;PMS_P1;PMS_P2;Temp;Humidity;BMP_temperature;BMP_pressure;BME280_temperature;BME280_humidity;BME280_pressure;Samples;Min_cycle;Max_cycle;Signal;HPM_P1;HPM_P2
2023/09/02 00:02:03;;;;;;;5.43;2.63;;;;;;;26.80;50.23;99239.63;4978956;28;20050;-81
2023/09/02 00:04:29;;;;;;;3.95;2.10;;;;;;;26.81;50.05;99252.03;4997234;28;20030;-84
2023/09/02 00:06:55;;;;;;;5.15;1.80;;;;;;;26.81;50.35;99261.88;4975912;28;20165;-83
2023/09/02 00:09:20;;;;;;;4.50;2.00;;;;;;;26.81;50.10;99268.09;4978541;28;20023;-86
2023/09/02 00:11:45;;;;;;;4.25;2.13;;;;;;;26.80;50.11;99266.38;4980967;28;20102;-86
2023/09/02 00:14:12;;;;;;;4.07;2.13;;;;;;;26.80;50.11;99271.75;4983005;28;20039;-85
2023/09/02 00:16:37;;;;;;;3.83;1.73;;;;;;;26.79;50.14;99262.00;4985606;28;20033;-84
2023/09/02 00:19:04;;;;;;;3.53;1.92;;;;;;;26.79;50.10;99264.69;4994902;28;20014;-84
2023/09/02 00:21:30;;;;;;;4.25;1.75;;;;;;;26.81;49.99;99262.72;4986773;28;20030;-87
2023/09/02 00:24:05;;;;;;;3.45;2.13;;;;;;;26.81;50.31;99267.22;4990306;28;20488;-87
2023/09/02 00:26:31;;;;;;;3.90;1.85;;;;;;;26.80;50.73;99261.03;4995022;28;20033;-87
2023/09/02 00:28:57;;;;;;;4.45;1.73;;;;;;;26.79;50.74;99259.31;4995032;28;20101;-87
2023/09/02 00:31:22;;;;;;;3.88;2.00;;;;;;;26.79;50.66;99259.31;4994368;28;20022;-84
2023/09/02 00:33:48;;;;;;;4.43;2.30;;;;;;;26.79;50.37;99264.69;4995276;28;20049;-86
2023/09/02 00:36:14;;;;;;;4.68;2.17;;;;;;;26.80;50.60;99260.19;4993433;28;20025;-87
2023/09/02 00:38:40;;;;;;;4.22;1.85;;;;;;;26.78;50.37;99257.63;4994513;28;20015;-85
2023/09/02 00:41:11;;;;;;;4.68;2.20;;;;;;;26.78;50.68;99262.97;4994782;28;20045;-86
2023/09/02 00:43:39;;;;;;;4.47;1.95;;;;;;;26.77;50.47;99263.97;4994325;28;20109;-84
2023/09/02 00:46:05;;;;;;;4.07;2.03;;;;;;;26.78;50.43;99272.88;4993974;28;20034;-85
2023/09/02 00:48:31;;;;;;;3.65;2.20;;;;;;;26.77;50.40;99272.00;4994613;28;20029;-85
2023/09/02 00:50:57;;;;;;;4.05;2.30;;;;;;;26.78;50.41;99270.19;4994462;28;20448;-86
2023/09/02 00:53:24;;;;;;;3.85;1.95;;;;;;;26.76;50.46;99275.66;4994252;28;20093;-84
2023/09/02 00:55:51;;;;;;;4.28;1.90;;;;;;;26.77;50.47;99281.84;4994565;28;20042;-86
2023/09/02 00:58:17;;;;;;;4.70;2.10;;;;;;;26.77;50.49;99277.34;4994344;28;20564;-86
2023/09/02 01:00:44;;;;;;;3.53;1.80;;;;;;;26.77;50.55;99276.50;4993795;28;20043;-86
2023/09/02 01:03:10;;;;;;;3.58;2.00;;;;;;;26.76;50.64;99274.81;4994206;28;20049;-83
2023/09/02 01:05:35;;;;;;;2.97;1.83;;;;;;;26.76;50.68;99278.34;5004196;28;20492;-86
2023/09/02 01:08:03;;;;;;;4.55;2.38;;;;;;;26.74;50.97;99283.00;4996680;28;20014;-85
2023/09/02 01:10:32;;;;;;;4.15;2.20;;;;;;;26.75;50.53;99278.47;4993891;28;20018;-83
2023/09/02 01:13:02;;;;;;;4.85;2.45;;;;;;;26.74;50.72;99280.31;4993597;28;20463;-83
2023/09/02 01:15:27;;;;;;;4.38;1.92;;;;;;;26.74;50.48;99266.94;4984401;28;20030;-85
2023/09/02 01:17:52;;;;;;;4.55;2.10;;;;;;;26.73;50.55;99270.56;4993763;28;20022;-85
2023/09/02 01:20:21;;;;;;;4.13;2.17;;;;;;;26.73;50.93;99275.09;4987247;28;20019;-84
2023/09/02 01:23:09;;;;;;;3.67;2.20;;;;;;;26.73;50.85;99264.38;4990055;28;20405;-86
2023/09/02 01:25:50;;;;;;;4.63;2.15;;;;;;;26.72;50.92;99268.06;4991883;28;20041;-85
2023/09/02 01:28:20;;;;;;;4.40;2.20;;;;;;;26.70;51.32;99276.22;4991990;28;20046;-85
2023/09/02 01:30:48;;;;;;;4.18;2.00;;;;;;;26.70;51.36;99265.50;4993929;28;20030;-85
2023/09/02 01:33:15;;;;;;;6.57;2.65;;;;;;;26.69;51.68;99269.16;4993384;28;20050;-87
2023/09/02 01:35:42;;;;;;;4.18;1.92;;;;;;;26.69;51.26;99253.13;4993840;28;20031;-86
2023/09/02 01:38:08;;;;;;;5.03;2.60;;;;;;;26.68;51.43;99267.47;4993505;28;20023;-86
2023/09/02 01:40:35;;;;;;;4.25;2.20;;;;;;;26.69;51.16;99263.81;4994061;28;20105;-86
2023/09/02 01:43:01;;;;;;;6.25;2.35;;;;;;;26.68;51.57;99262.97;4993440;28;20033;-86
2023/09/02 01:45:30;;;;;;;5.05;2.08;;;;;;;26.67;51.22;99252.38;4993164;28;20042;-86
2023/09/02 01:47:57;;;;;;;5.15;2.78;;;;;;;26.68;51.56;99246.03;4993720;28;20049;-85
2023/09/02 01:50:27;;;;;;;5.03;2.35;;;;;;;26.66;51.56;99240.84;4992062;28;20490;-86
2023/09/02 01:52:57;;;;;;;4.28;2.13;;;;;;;26.66;51.38;99242.66;4993563;28;20034;-86
2023/09/02 01:55:24;;;;;;;4.53;2.08;;;;;;;26.66;51.65;99237.31;4993457;28;20072;-86
2023/09/02 01:57:49;;;;;;;4.22;2.50;;;;;;;26.66;51.43;99245.34;4993161;28;20081;-87
2023/09/02 02:00:15;;;;;;;4.30;2.05;;;;;;;26.65;51.15;99265.06;4993317;28;20026;-86
2023/09/02 02:02:42;;;;;;;3.65;2.40;;;;;;;26.65;51.19;99257.03;4993674;28;20486;-87
2023/09/02 02:05:12;;;;;;;5.05;2.65;;;;;;;26.65;51.07;99257.91;5000915;28;20390;-87
2023/09/02 02:07:42;;;;;;;4.45;2.22;;;;;;;26.65;50.78;99273.09;4980769;28;20019;-87
2023/09/02 02:10:12;;;;;;;6.10;2.22;;;;;;;26.65;50.89;99267.75;4993125;28;20033;-87
2023/09/02 02:12:41;;;;;;;4.50;2.50;;;;;;;26.64;51.11;99261.53;4993195;28;20025;-87
2023/09/02 02:15:10;;;;;;;3.58;2.35;;;;;;;26.63;51.15;99264.38;4993741;28;20027;-87
2023/09/02 02:17:37;;;;;;;3.35;2.22;;;;;;;26.63;51.11;99270.53;4993353;28;20518;-87
2023/09/02 02:20:03;;;;;;;4.63;2.65;;;;;;;26.63;50.88;99275.91;4992175;28;20120;-86
2023/09/02 02:22:28;;;;;;;5.00;2.38;;;;;;;26.63;50.99;99277.75;4993220;28;20054;-87
2023/09/02 02:24:53;;;;;;;6.97;2.53;;;;;;;26.62;51.15;99282.25;4993564;28;20097;-86
2023/09/02 02:27:20;;;;;;;4.75;2.40;;;;;;;26.63;50.66;99291.13;4992424;28;21287;-87
2023/09/02 02:29:45;;;;;;;3.33;1.92;;;;;;;26.61;51.10;99274.34;4993059;28;20018;-86
2023/09/02 02:32:11;;;;;;;3.60;2.10;;;;;;;26.61;51.16;99267.16;4993326;28;20117;-87
2023/09/02 02:34:36;;;;;;;4.50;2.20;;;;;;;26.63;51.09;99275.06;4993286;28;20015;-87
2023/09/02 02:37:02;;;;;;;3.70;2.20;;;;;;;26.61;51.12;99274.34;4993026;28;20117;-85
2023/09/02 02:39:28;;;;;;;4.63;2.10;;;;;;;26.63;50.71;99285.78;4992793;28;20022;-87
2023/09/02 02:41:54;;;;;;;4.03;2.38;;;;;;;26.62;50.61;99281.38;4992425;28;20522;-87
2023/09/02 02:44:19;;;;;;;3.55;2.17;;;;;;;26.59;51.06;99282.53;4992693;28;20117;-87
2023/09/02 02:46:44;;;;;;;3.78;2.20;;;;;;;26.61;50.87;99293.06;4992709;28;20158;-87
2023/09/02 02:49:11;;;;;;;4.13;2.30;;;;;;;26.60;50.97;99286.03;4992934;28;20022;-87
2023/09/02 02:51:37;;;;;;;3.55;2.08;;;;;;;26.61;51.04;99293.06;4992656;28;20061;-87
2023/09/02 02:54:02;;;;;;;4.45;2.13;;;;;;;26.60;51.12;99294.91;4992325;28;20194;-86
2023/09/02 02:56:27;;;;;;;3.47;1.90;;;;;;;26.60;50.62;99284.22;4992227;28;20033;-87
2023/09/02 02:58:54;;;;;;;3.97;2.13;;;;;;;26.60;50.53;99284.22;4990630;28;20104;-86
2023/09/02 03:01:20;;;;;;;4.20;2.20;;;;;;;26.61;50.61;99282.38;4991204;28;20070;-88
2023/09/02 03:03:46;;;;;;;3.80;2.15;;;;;;;26.59;50.63;99274.50;4992475;28;20018;-85
2023/09/02 03:06:19;;;;;;;3.88;2.53;;;;;;;26.59;51.04;99257.59;4992308;28;20040;-87
2023/09/02 03:08:45;;;;;;;4.28;2.22;;;;;;;26.59;50.92;99246.88;4992366;28;20081;-86
2023/09/02 03:11:11;;;;;;;4.32;2.15;;;;;;;26.56;51.17;99242.66;4992151;28;20042;-87
2023/09/02 03:13:37;;;;;;;3.95;2.05;;;;;;;26.55;51.13;99254.34;4992316;28;20065;-85
2023/09/02 03:16:04;;;;;;;5.32;2.33;;;;;;;26.53;51.17;99266.97;4991988;28;20045;-86
2023/09/02 03:18:29;;;;;;;3.97;2.45;;;;;;;26.52;51.21;99274.19;4992280;28;20037;-87
2023/09/02 03:21:02;;;;;;;3.42;2.05;;;;;;;26.51;51.04;99283.19;4992596;28;20027;-87
2023/09/02 03:23:27;;;;;;;3.78;2.13;;;;;;;26.53;51.03;99289.25;4992185;28;20503;-87
2023/09/02 03:25:53;;;;;;;3.85;1.73;;;;;;;26.54;50.88;99288.25;4992274;28;20069;-87
2023/09/02 03:28:18;;;;;;;3.03;1.98;;;;;;;26.50;51.30;99283.31;4992318;28;20021;-87
2023/09/02 03:30:43;;;;;;;4.18;1.95;;;;;;;26.50;50.94;99286.00;4992273;28;20024;-87
2023/09/02 03:33:09;;;;;;;3.83;2.00;;;;;;;26.49;50.98;99285.13;4992143;28;20018;-87
2023/09/02 03:35:38;;;;;;;3.92;1.70;;;;;;;26.48;51.08;99283.44;5007306;28;20034;-87
2023/09/02 03:38:04;;;;;;;3.20;1.98;;;;;;;26.48;50.72;99267.41;4992993;28;20401;-87
2023/09/02 03:40:30;;;;;;;5.50;2.15;;;;;;;26.47;51.52;99271.06;4995416;28;20022;-87
2023/09/02 03:42:55;;;;;;;5.55;2.30;;;;;;;26.44;51.22;99265.97;4995895;28;20080;-87
2023/09/02 03:45:21;;;;;;;5.32;2.15;;;;;;;26.43;51.54;99277.66;4995729;28;20015;-86
2023/09/02 03:47:46;;;;;;;3.58;2.13;;;;;;;26.44;51.38;99287.34;4995845;28;20041;-86
2023/09/02 03:50:11;;;;;;;3.30;1.90;;;;;;;26.42;51.34;99292.00;4994319;28;20019;-86
2023/09/02 03:52:37;;;;;;;3.00;1.90;;;;;;;26.41;51.68;99303.69;4995323;28;20022;-86
2023/09/02 03:55:03;;;;;;;3.30;1.90;;;;;;;26.42;51.28;99310.72;4995452;28;20470;-85
2023/09/02 03:57:28;;;;;;;3.13;1.90;;;;;;;26.41;51.30;99338.47;4995306;28;20022;-86
2023/09/02 03:59:54;;;;;;;3.25;1.92;;;;;;;26.40;51.33;99350.16;4995713;28;20033;-85
2023/09/02 04:02:19;;;;;;;3.30;1.90;;;;;;;26.41;51.40;99351.84;5010416;28;20387;-85
2023/09/02 04:04:45;;;;;;;3.90;1.90;;;;;;;26.39;51.19;99343.94;5002359;28;20053;-86
2023/09/02 04:07:10;;;;;;;3.72;1.85;;;;;;;26.40;51.31;99344.81;4995344;28;20037;-85
2023/09/02 04:09:35;;;;;;;2.90;1.60;;;;;;;26.38;51.24;99352.09;4994986;28;20080;-86
2023/09/02 04:12:01;;;;;;;3.35;1.92;;;;;;;26.37;51.43;99345.06;4995302;28;20467;-86
2023/09/02 04:14:26;;;;;;;2.58;1.48;;;;;;;26.37;51.21;99339.72;4995247;28;20022;-85
2023/09/02 04:16:55;;;;;;;2.95;1.75;;;;;;;26.36;51.54;99343.38;4995329;28;20046;-87
2023/09/02 04:19:22;;;;;;;3.17;1.90;;;;;;;26.36;51.21;99332.66;4995364;28;20034;-86
2023/09/02 04:21:48;;;;;;;3.28;1.63;;;;;;;26.33;51.64;99330.28;4995082;28;20041;-87
2023/09/02 04:24:14;;;;;;;3.58;2.10;;;;;;;26.35;51.20;99328.31;4994748;28;20023;-86
2023/09/02 04:26:39;;;;;;;3.08;1.80;;;;;;;26.33;51.27;99328.44;5009984;28;20034;-85
2023/09/02 04:29:05;;;;;;;3.13;1.90;;;;;;;26.32;51.67;99321.38;4995156;28;20022;-86
2023/09/02 04:31:30;;;;;;;3.53;1.77;;;;;;;26.31;51.60;99324.19;4994898;28;20023;-86
2023/09/02 04:33:56;;;;;;;3.45;2.20;;;;;;;26.32;51.58;99325.88;4995092;28;20030;-86
2023/09/02 04:36:23;;;;;;;3.25;2.10;;;;;;;26.32;51.58;99336.56;4994822;28;20088;-86
2023/09/02 04:38:48;;;;;;;3.92;2.00;;;;;;;26.31;51.52;99334.88;4986522;28;20057;-87
2023/09/02 04:41:15;;;;;;;3.25;1.83;;;;;;;26.31;51.36;99340.22;4989225;28;20466;-86
2023/09/02 04:43:41;;;;;;;4.03;1.88;;;;;;;26.30;51.15;99341.22;4994847;28;20050;-85
2023/09/02 04:46:08;;;;;;;3.30;1.80;;;;;;;26.28;51.24;99338.66;4994493;28;20064;-86
2023/09/02 04:48:33;;;;;;;3.53;1.88;;;;;;;26.28;51.55;99341.34;4994540;28;20022;-85
2023/09/02 04:50:59;;;;;;;5.80;2.00;;;;;;;26.29;51.48;99344.88;4994145;28;20465;-85
2023/09/02 04:53:24;;;;;;;3.60;1.83;;;;;;;26.26;51.38;99333.44;4990889;28;20031;-84
2023/09/02 04:55:50;;;;;;;3.63;1.90;;;;;;;26.26;51.71;99333.44;4993068;28;20031;-86
2023/09/02 04:58:16;;;;;;;3.45;1.95;;;;;;;26.25;51.70;99329.06;4994500;28;20018;-87
2023/09/02 05:00:42;;;;;;;2.97;2.05;;;;;;;26.26;51.63;99324.59;4994557;28;20137;-87
2023/09/02 05:03:11;;;;;;;3.08;1.67;;;;;;;26.25;51.46;99321.06;4994666;28;20153;-87
2023/09/02 05:05:36;;;;;;;3.25;1.80;;;;;;;26.25;51.69;99315.72;4994740;28;20038;-87
2023/09/02 05:08:02;;;;;;;3.28;1.75;;;;;;;26.23;51.43;99301.63;4994094;28;20015;-85
2023/09/02 05:10:28;;;;;;;2.95;1.80;;;;;;;26.23;51.46;99296.28;4994126;28;20018;-83
2023/09/02 05:12:53;;;;;;;3.60;2.00;;;;;;;26.24;51.71;99297.97;4993730;28;20022;-84
2023/09/02 05:15:19;;;;;;;2.60;1.60;;;;;;;26.23;51.31;99296.28;4993836;28;20061;-87
2023/09/02 05:17:44;;;;;;;3.95;1.80;;;;;;;26.22;51.66;99294.56;4991884;28;20042;-87
2023/09/02 05:20:10;;;;;;;3.35;1.83;;;;;;;26.22;51.56;99286.53;4983141;28;20019;-88
2023/09/02 05:22:36;;;;;;;3.85;1.60;;;;;;;26.23;51.74;99290.06;4993962;28;20049;-86
2023/09/02 05:25:02;;;;;;;2.78;1.67;;;;;;;26.20;51.40;99280.44;4993299;28;20113;-85
2023/09/02 05:27:28;;;;;;;3.45;2.03;;;;;;;26.21;51.48;99275.97;4986741;28;20386;-86
2023/09/02 05:29:53;;;;;;;3.05;1.80;;;;;;;26.20;51.63;99272.44;4989763;28;20026;-87
2023/09/02 05:32:19;;;;;;;2.88;1.95;;;;;;;26.19;51.83;99268.06;4984341;28;20021;-85
2023/09/02 05:34:44;;;;;;;3.28;1.77;;;;;;;26.19;51.46;99267.25;4985734;28;20026;-86
2023/09/02 05:37:10;;;;;;;2.97;1.63;;;;;;;26.19;51.75;99265.41;4994196;28;20112;-87
2023/09/02 05:39:36;;;;;;;4.22;1.83;;;;;;;26.18;51.40;99258.34;4993808;28;20420;-87
2023/09/02 05:42:02;;;;;;;2.38;1.48;;;;;;;26.16;51.70;99256.78;4979823;28;20034;-85
2023/09/02 05:44:28;;;;;;;3.05;1.70;;;;;;;26.16;51.38;99257.66;4993634;28;20023;-86
2023/09/02 05:46:53;;;;;;;3.05;1.77;;;;;;;26.18;51.31;99255.69;4993460;28;20033;-85
2023/09/02 05:49:18;;;;;;;3.42;1.55;;;;;;;26.16;51.41;99263.00;4992983;28;20478;-84
2023/09/02 05:51:47;;;;;;;3.28;1.83;;;;;;;26.17;51.49;99259.34;4990058;28;20471;-86
2023/09/02 05:54:12;;;;;;;3.58;1.90;;;;;;;26.17;51.42;99256.66;4984829;28;20399;-87
2023/09/02 05:56:38;;;;;;;2.38;1.45;;;;;;;26.17;51.62;99263.84;4993554;28;20053;-85
2023/09/02 05:59:05;;;;;;;3.60;1.70;;;;;;;26.15;51.51;99250.63;4987093;28;20118;-86
2023/09/02 06:01:30;;;;;;;4.35;1.92;;;;;;;26.14;51.52;99252.44;4985330;28;20046;-87
2023/09/02 06:03:56;;;;;;;3.33;2.03;;;;;;;26.12;51.37;99240.19;4994109;28;20033;-85
2023/09/02 06:06:22;;;;;;;2.72;1.48;;;;;;;26.12;51.69;99240.19;4998770;28;20508;-86
2023/09/02 06:08:48;;;;;;;3.58;1.67;;;;;;;26.11;51.34;99251.84;4992875;28;20105;-84
2023/09/02 06:11:14;;;;;;;2.78;1.40;;;;;;;26.11;51.55;99251.84;4992856;28;20106;-86
2023/09/02 06:13:39;;;;;;;3.15;1.55;;;;;;;26.12;51.57;99250.88;4993342;28;20038;-86
2023/09/02 06:16:06;;;;;;;3.63;1.77;;;;;;;26.08;51.49;99244.94;4993470;28;20081;-87
2023/09/02 06:18:33;;;;;;;3.20;1.60;;;;;;;26.09;51.53;99235.06;4993025;28;20442;-88
2023/09/02 06:20:58;;;;;;;3.05;1.70;;;;;;;26.08;51.49;99220.03;4993370;28;20018;-88
2023/09/02 06:23:25;;;;;;;3.35;1.40;;;;;;;26.07;51.68;99210.31;4993379;28;20068;-87
2023/09/02 06:25:58;;;;;;;3.38;1.90;;;;;;;26.06;51.69;99211.28;4993171;28;20026;-88
2023/09/02 06:28:24;;;;;;;3.22;1.63;;;;;;;26.06;51.63;99195.25;4993465;28;20390;-88
2023/09/02 06:30:50;;;;;;;3.70;1.90;;;;;;;26.05;51.74;99172.19;4992116;28;20087;-87
2023/09/02 06:33:16;;;;;;;3.47;1.73;;;;;;;26.07;51.64;99159.50;4992999;28;20545;-87
2023/09/02 06:35:42;;;;;;;4.25;2.10;;;;;;;26.06;51.95;99149.81;4993067;28;20105;-87
2023/09/02 06:38:07;;;;;;;3.40;1.95;;;;;;;26.07;51.88;99152.34;4992419;28;20105;-85
2023/09/02 06:40:32;;;;;;;3.47;2.00;;;;;;;26.09;52.00;99157.53;4992240;28;20029;-85
2023/09/02 06:42:58;;;;;;;3.30;2.05;;;;;;;26.09;52.04;99160.22;4992116;28;20068;-83
2023/09/02 06:45:25;;;;;;;3.85;1.73;;;;;;;26.06;51.69;99139.09;4988985;28;20443;-85
2023/09/02 06:47:51;;;;;;;3.45;1.92;;;;;;;26.07;51.76;99140.81;4989688;28;20117;-86
2023/09/02 06:50:16;;;;;;;3.88;1.95;;;;;;;26.07;51.99;99151.50;4992761;28;20054;-86
2023/09/02 06:52:42;;;;;;;3.55;1.70;;;;;;;26.04;51.51;99167.81;4991549;28;20022;-86
2023/09/02 06:55:07;;;;;;;3.13;1.67;;;;;;;26.03;51.52;99168.78;4993639;28;20490;-89
2023/09/02 06:57:33;;;;;;;4.07;1.63;;;;;;;26.03;51.84;99174.13;4992809;28;20482;-86
2023/09/02 06:59:58;;;;;;;3.35;1.88;;;;;;;25.99;51.95;99171.72;4992219;28;20445;-86
2023/09/02 07:02:24;;;;;;;4.78;2.10;;;;;;;25.99;51.98;99177.06;4991729;28;20077;-87
2023/09/02 07:04:49;;;;;;;5.60;2.10;;;;;;;26.00;51.83;99183.25;4999418;28;20060;-88
2023/09/02 07:07:15;;;;;;;4.00;1.63;;;;;;;25.99;51.58;99171.72;4978903;28;20563;-88
2023/09/02 07:09:40;;;;;;;5.43;2.03;;;;;;;26.01;51.82;99190.31;4992489;28;20030;-86
2023/09/02 07:12:06;;;;;;;6.88;2.78;;;;;;;25.99;51.67;99208.28;5005204;28;20499;-87
2023/09/02 07:14:31;;;;;;;4.47;2.10;;;;;;;25.98;51.77;99234.19;4988984;28;20085;-88
2023/09/02 07:16:57;;;;;;;2.88;1.67;;;;;;;25.98;51.75;99236.88;4990828;28;20077;-88
2023/09/02 07:19:23;;;;;;;2.83;1.50;;;;;;;25.97;51.85;99232.50;4996892;28;20489;-89
2023/09/02 07:21:49;;;;;;;3.47;1.70;;;;;;;25.96;51.86;99236.13;4997328;28;20109;-90
2023/09/02 07:24:14;;;;;;;4.40;1.95;;;;;;;25.96;51.63;99230.78;5011749;28;20030;-88
2023/09/02 07:26:40;;;;;;;2.80;1.50;;;;;;;25.93;51.82;99231.06;4997484;28;20033;-90
2023/09/02 07:29:06;;;;;;;4.18;1.65;;;;;;;25.93;52.13;99225.72;4996760;28;20011;-89
2023/09/02 07:31:31;;;;;;;4.80;2.03;;;;;;;25.90;52.16;99222.47;4989901;28;20493;-88
2023/09/02 07:33:57;;;;;;;4.45;1.60;;;;;;;25.89;52.73;99221.63;4996036;28;20478;-90
2023/09/02 07:36:22;;;;;;;3.20;1.40;;;;;;;25.87;52.53;99220.91;4997097;28;20019;-89
2023/09/02 07:38:48;;;;;;;3.92;1.60;;;;;;;25.87;52.35;99231.59;5002739;28;20061;-90
2023/09/02 07:41:13;;;;;;;3.10;1.77;;;;;;;25.86;52.60;99229.91;4994930;28;20027;-90
2023/09/02 07:43:38;;;;;;;3.55;1.50;;;;;;;25.84;52.30;99215.81;4996626;28;20032;-90
2023/09/02 07:46:04;;;;;;;2.97;1.38;;;;;;;25.82;52.82;99204.41;4988608;28;20589;-89
2023/09/02 07:48:29;;;;;;;3.63;1.65;;;;;;;25.79;52.50;99207.34;4995085;28;20050;-86
2023/09/02 07:50:54;;;;;;;4.18;1.80;;;;;;;25.78;52.55;99205.66;4990778;28;20022;-88
2023/09/02 07:53:20;;;;;;;2.55;1.38;;;;;;;25.77;52.93;99225.34;4995721;28;20019;-83
2023/09/02 07:55:46;;;;;;;4.22;1.48;;;;;;;25.79;52.56;99223.38;4995676;28;20089;-86
2023/09/02 07:58:11;;;;;;;3.63;1.70;;;;;;;25.79;52.79;99223.38;4993742;28;20040;-88
2023/09/02 08:00:37;;;;;;;3.00;1.50;;;;;;;25.81;52.36;99205.41;4989149;28;20077;-87
2023/09/02 08:03:03;;;;;;;3.25;1.77;;;;;;;25.79;53.18;99210.00;4994200;28;20025;-88
2023/09/02 08:05:29;;;;;;;3.33;1.80;;;;;;;25.79;53.02;99205.53;4992181;28;20026;-86
2023/09/02 08:07:55;;;;;;;3.75;1.65;;;;;;;25.78;53.32;99217.19;5001226;28;20081;-85
2023/09/02 08:10:21;;;;;;;2.88;1.38;;;;;;;25.80;52.98;99230.44;4989915;28;20023;-88
2023/09/02 08:12:46;;;;;;;4.95;1.90;;;;;;;25.82;52.89;99240.00;4992760;28;21154;-87
2023/09/02 08:15:13;;;;;;;3.45;1.73;;;;;;;25.82;53.21;99231.16;4991151;28;20106;-89
2023/09/02 08:17:40;;;;;;;3.63;1.70;;;;;;;25.83;53.19;99224.81;4995805;28;20041;-86
2023/09/02 08:20:08;;;;;;;2.85;1.48;;;;;;;25.83;53.70;99211.44;4995084;28;20053;-86
2023/09/02 08:22:33;;;;;;;4.32;1.75;;;;;;;25.85;53.52;99212.16;4995398;28;20105;-86
2023/09/02 08:24:59;;;;;;;4.43;1.90;;;;;;;25.83;53.76;99195.41;4993297;28;20156;-86
2023/09/02 08:27:25;;;;;;;3.08;1.60;;;;;;;25.86;53.57;99184.47;4992344;28;20049;-88
2023/09/02 08:29:52;;;;;;;2.85;1.55;;;;;;;25.90;53.55;99175.19;4991908;28;20038;-86
2023/09/02 08:32:17;;;;;;;3.83;1.80;;;;;;;25.94;53.50;99184.66;4994339;28;20030;-88
2023/09/02 08:34:43;;;;;;;3.85;1.40;;;;;;;26.01;53.01;99217.88;4993127;28;20026;-88
2023/09/02 08:37:08;;;;;;;3.25;1.70;;;;;;;26.04;53.50;99240.84;5007531;28;20038;-88
2023/09/02 08:39:34;;;;;;;3.28;1.63;;;;;;;26.02;53.21;99245.47;4993190;28;20026;-87
2023/09/02 08:41:59;;;;;;;2.15;1.33;;;;;;;26.01;53.52;99255.31;4995143;28;20371;-86
2023/09/02 08:44:29;;;;;;;3.47;1.40;;;;;;;26.01;53.96;99271.34;4994267;28;20034;-87
2023/09/02 08:46:56;;;;;;;3.60;1.50;;;;;;;25.97;53.30;99256.56;4992769;28;20038;-89
2023/09/02 08:49:22;;;;;;;2.85;1.45;;;;;;;26.00;53.28;99250.09;4991185;28;20105;-87
2023/09/02 08:51:48;;;;;;;3.20;1.60;;;;;;;25.99;53.72;99259.09;4992706;28;20054;-85
2023/09/02 08:54:15;;;;;;;2.42;1.48;;;;;;;26.01;53.80;99255.31;4983988;28;20542;-86
2023/09/02 08:56:44;;;;;;;3.13;1.58;;;;;;;26.02;53.89;99250.81;4988859;28;20025;-88
2023/09/02 08:59:10;;;;;;;3.17;1.70;;;;;;;25.98;53.78;99234.19;4991711;28;20060;-87
2023/09/02 09:01:45;;;;;;;3.95;1.92;;;;;;;25.96;54.31;99220.09;4993564;28;20510;-86
2023/09/02 09:04:14;;;;;;;3.25;1.60;;;;;;;25.99;54.19;99214.50;4997243;28;20573;-84
2023/09/02 09:06:41;;;;;;;4.90;1.80;;;;;;;25.96;54.96;99209.41;4999869;28;20042;-85
2023/09/02 09:09:10;;;;;;;3.03;1.55;;;;;;;25.99;54.31;99213.66;4994533;28;20033;-88
2023/09/02 09:11:38;;;;;;;2.95;1.88;;;;;;;25.98;54.47;99223.50;4994638;28;20030;-87
2023/09/02 09:14:09;;;;;;;3.92;1.75;;;;;;;25.98;55.14;99228.84;4994041;28;20085;-87
2023/09/02 09:16:38;;;;;;;3.78;2.08;;;;;;;25.94;55.11;99227.41;4994285;28;20057;-86
2023/09/02 09:19:03;;;;;;;3.28;2.00;;;;;;;25.93;55.43;99224.88;4994030;28;20061;-84
2023/09/02 09:21:29;;;;;;;5.35;2.28;;;;;;;25.91;55.23;99230.34;4993809;28;20049;-85
2023/09/02 09:23:55;;;;;;;5.68;2.00;;;;;;;25.88;55.42;99227.94;4993768;28;20077;-84
2023/09/02 09:26:24;;;;;;;3.15;1.75;;;;;;;25.86;55.82;99236.09;4993819;28;20026;-84
2023/09/02 09:28:51;;;;;;;3.17;1.77;;;;;;;25.86;55.75;99257.47;4992359;28;20038;-84
2023/09/02 09:31:17;;;;;;;4.25;2.28;;;;;;;25.89;55.63;99272.41;4993429;28;20501;-86
2023/09/02 09:33:58;;;;;;;3.88;2.22;;;;;;;25.87;55.84;99279.72;4992526;28;20037;-86
2023/09/02 09:36:28;;;;;;;3.60;1.67;;;;;;;25.88;55.89;99286.75;4992962;28;20022;-86
2023/09/02 09:38:56;;;;;;;4.78;2.00;;;;;;;25.85;56.24;99270.97;4987820;28;20031;-87
2023/09/02 09:41:23;;;;;;;3.80;2.03;;;;;;;25.87;56.44;99269.03;4979554;28;20085;-86
2023/09/02 09:44:15;;;;;;;3.83;1.95;;;;;;;25.86;56.49;99270.84;4988366;28;20034;-89
2023/09/02 09:46:43;;;;;;;2.85;1.55;;;;;;;25.86;56.64;99257.47;4988293;28;20513;-88
2023/09/02 09:49:20;;;;;;;3.17;1.75;;;;;;;25.91;56.77;99259.75;4984434;28;20052;-87
2023/09/02 09:51:45;;;;;;;3.97;1.90;;;;;;;25.91;56.65;99266.94;4993865;28;20026;-88
2023/09/02 09:54:11;;;;;;;3.60;1.90;;;;;;;25.90;56.71;99271.41;4997024;28;20491;-88
2023/09/02 09:56:42;;;;;;;4.38;2.10;;;;;;;25.88;56.79;99268.03;4991542;28;20041;-87
2023/09/02 09:59:08;;;;;;;3.85;2.35;;;;;;;25.84;57.11;99259.44;4987476;28;20402;-86
2023/09/02 10:01:35;;;;;;;4.65;2.05;;;;;;;25.86;57.40;99260.13;4984607;28;20054;-87
2023/09/02 10:04:07;;;;;;;5.22;2.28;;;;;;;25.89;56.43;99269.72;4993256;28;20037;-86
2023/09/02 10:06:39;;;;;;;4.18;1.73;;;;;;;25.86;56.91;99276.19;4989368;28;20121;-86
2023/09/02 10:09:04;;;;;;;5.20;2.00;;;;;;;25.84;56.91;99287.97;4986168;28;20470;-87
2023/09/02 10:11:30;;;;;;;4.13;2.08;;;;;;;25.82;57.66;99284.59;4992142;28;20046;-88
2023/09/02 10:13:57;;;;;;;4.32;2.08;;;;;;;25.80;57.61;99284.72;4988962;28;20042;-85
2023/09/02 10:16:24;;;;;;;5.68;2.55;;;;;;;25.81;57.19;99290.94;4983735;28;20034;-86
2023/09/02 10:18:50;;;;;;;3.90;1.80;;;;;;;25.81;57.29;99296.28;4989491;28;20044;-85
2023/09/02 10:21:17;;;;;;;3.42;2.25;;;;;;;25.80;57.35;99294.56;4989857;28;20026;-87
2023/09/02 10:23:50;;;;;;;4.18;2.17;;;;;;;25.81;57.35;99285.56;4992837;28;20487;-87
2023/09/02 10:26:27;;;;;;;4.40;2.20;;;;;;;25.81;57.40;99290.94;4987353;28;20119;-83
2023/09/02 10:28:57;;;;;;;4.63;2.10;;;;;;;25.81;57.40;99288.25;4989756;28;20030;-84
2023/09/02 10:31:30;;;;;;;5.50;2.20;;;;;;;25.81;57.52;99291.75;4992506;28;20045;-87
2023/09/02 10:34:35;;;;;;;4.90;2.05;;;;;;;25.85;57.34;99289.66;4992571;28;20349;-87
2023/09/02 10:37:08;;;;;;;5.63;2.53;;;;;;;25.88;57.70;99294.75;4970961;28;20110;-84
2023/09/02 10:40:06;;;;;;;5.13;2.17;;;;;;;25.91;56.13;99291.81;4968573;28;20491;-86
2023/09/02 10:42:34;;;;;;;4.78;2.08;;;;;;;25.95;55.78;99287.91;4964192;28;20186;-85
2023/09/02 10:45:00;;;;;;;4.03;2.22;;;;;;;25.97;55.63;99288.66;4967398;28;20042;-86
2023/09/02 10:47:26;;;;;;;3.97;1.98;;;;;;;26.01;55.18;99290.06;4969380;28;20031;-85
2023/09/02 10:49:54;;;;;;;4.63;2.30;;;;;;;26.05;55.40;99287.13;4970097;28;20030;-83
2023/09/02 10:52:20;;;;;;;4.72;2.15;;;;;;;26.10;55.43;99290.28;4967879;28;20108;-84
2023/09/02 10:55:03;;;;;;;5.50;2.20;;;;;;;26.12;55.64;99289.16;4970014;28;20106;-84
2023/09/02 10:57:43;;;;;;;8.90;2.85;;;;;;;26.14;55.41;99292.53;4967087;28;20119;-88
2023/09/02 11:00:21;;;;;;;6.75;2.45;;;;;;;26.16;55.64;99299.56;4972215;28;20054;-86
2023/09/02 11:02:49;;;;;;;6.88;2.63;;;;;;;26.18;55.58;99309.16;4971661;28;20089;-89
2023/09/02 11:05:14;;;;;;;11.02;3.35;;;;;;;26.20;55.82;99301.03;4970078;28;20129;-87
2023/09/02 11:07:41;;;;;;;13.40;4.28;;;;;;;26.20;54.93;99301.03;4969365;28;20114;-85
2023/09/02 11:10:10;;;;;;;11.07;4.00;;;;;;;26.22;55.58;99304.41;4967556;28;20027;-87
2023/09/02 11:13:01;;;;;;;11.60;3.60;;;;;;;26.23;55.35;99308.78;4983941;28;20125;-82
2023/09/02 11:15:28;;;;;;;9.75;4.10;;;;;;;26.23;55.28;99306.97;4985908;28;20129;-87
2023/09/02 11:17:53;;;;;;;9.82;3.42;;;;;;;26.24;55.46;99308.66;4988272;28;20121;-88
2023/09/02 11:20:49;;;;;;;9.93;3.95;;;;;;;26.24;55.25;99308.66;4982721;28;20471;-88
2023/09/02 11:23:21;;;;;;;7.75;3.53;;;;;;;26.26;55.08;99296.00;4993380;28;20106;-83
2023/09/02 11:25:46;;;;;;;7.78;3.88;;;;;;;26.25;54.83;99299.66;4989090;28;20073;-88
2023/09/02 11:28:17;;;;;;;8.18;3.85;;;;;;;26.26;55.06;99292.50;4984427;28;20042;-80
2023/09/02 11:31:09;;;;;;;13.00;4.47;;;;;;;26.26;55.03;99295.16;4996332;28;20027;-82
2023/09/02 11:33:40;;;;;;;12.45;4.63;;;;;;;26.30;54.40;99291.25;4982608;28;20430;-80
2023/09/02 11:36:06;;;;;;;10.30;4.00;;;;;;;26.32;54.56;99293.78;4987654;28;20410;-79